createdAt,value
2022-12-25T00:00:22.200Z,9.25
2022-12-25T00:02:52.568Z,11.18
2022-12-25T00:05:25.561Z,11.45
2022-12-25T00:07:56.076Z,12.38
2022-12-25T00:10:26.354Z,9.63
2022-12-25T00:12:56.551Z,10.20
2022-12-25T00:15:26.737Z,9.90
2022-12-25T00:17:56.938Z,8.50
2022-12-25T00:20:29.793Z,11.43
2022-12-25T00:23:00.018Z,10.48
2022-12-25T00:25:30.440Z,10.40
2022-12-25T00:28:00.619Z,13.15
2022-12-25T00:30:30.809Z,10.25
2022-12-25T00:33:01.108Z,10.73
2022-12-25T00:35:33.927Z,10.95
2022-12-25T00:38:04.340Z,13.13
2022-12-25T00:40:34.757Z,13.65
2022-12-25T00:43:05.027Z,13.07
2022-12-25T00:45:35.207Z,14.15
2022-12-25T00:48:05.702Z,14.23
2022-12-25T00:50:41.118Z,15.80
2022-12-25T00:53:11.388Z,15.52
2022-12-25T00:55:41.615Z,19.02
2022-12-25T00:58:11.771Z,17.67
2022-12-25T01:00:42.544Z,20.48
2022-12-25T01:03:12.878Z,20.05
2022-12-25T01:05:45.895Z,20.55
2022-12-25T01:08:16.093Z,19.23
2022-12-25T01:10:43.766Z,18.00
2022-12-25T01:13:14.030Z,16.05
2022-12-25T01:15:44.307Z,12.27
2022-12-25T01:18:14.514Z,14.27
2022-12-25T01:20:47.377Z,13.80
2022-12-25T01:23:17.947Z,13.77
2022-12-25T01:25:49.155Z,12.05
2022-12-25T01:28:19.612Z,18.27
2022-12-25T01:30:51.832Z,13.43
2022-12-25T01:33:22.307Z,11.02
2022-12-25T01:35:55.150Z,14.10
2022-12-25T01:38:25.475Z,13.43
2022-12-25T01:40:56.122Z,12.35
2022-12-25T01:43:28.448Z,13.30
2022-12-25T01:45:59.168Z,12.00
2022-12-25T01:48:33.718Z,15.77
2022-12-25T01:51:09.748Z,12.68
2022-12-25T01:53:40.426Z,14.98
2022-12-25T01:56:11.968Z,12.07
2022-12-25T01:58:42.273Z,11.48
2022-12-25T02:01:12.595Z,12.45
2022-12-25T02:03:44.625Z,11.00
2022-12-25T02:06:17.552Z,10.02
2022-12-25T02:08:47.919Z,11.02
2022-12-25T02:11:38.634Z,10.50
2022-12-25T02:14:08.910Z,10.18
2022-12-25T02:16:56.769Z,10.00
2022-12-25T02:19:41.444Z,16.58
2022-12-25T02:22:28.022Z,10.52
2022-12-25T02:25:08.357Z,11.80
2022-12-25T02:28:07.871Z,8.75
2022-12-25T02:30:43.518Z,8.95
2022-12-25T02:33:31.739Z,8.32
2022-12-25T02:36:07.893Z,9.68
2022-12-25T02:39:02.006Z,8.48
2022-12-25T02:41:32.579Z,7.28
2022-12-25T02:44:22.100Z,7.40
2022-12-25T02:47:05.379Z,9.35
2022-12-25T02:49:49.983Z,9.73
2022-12-25T02:52:36.100Z,9.93
2022-12-25T02:55:23.054Z,8.93
2022-12-25T02:58:09.600Z,10.23
2022-12-25T03:00:57.869Z,7.53
2022-12-25T03:03:52.769Z,7.60
2022-12-25T03:06:38.068Z,7.85
2022-12-25T03:09:23.315Z,9.90
2022-12-25T03:11:59.948Z,6.95
2022-12-25T03:14:43.626Z,7.07
2022-12-25T03:17:16.639Z,6.68
2022-12-25T03:19:59.366Z,8.50
2022-12-25T03:22:53.381Z,9.32
2022-12-25T03:25:36.536Z,7.80
2022-12-25T03:28:08.712Z,6.28
2022-12-25T03:31:00.251Z,6.45
2022-12-25T03:34:01.483Z,9.18
2022-12-25T03:36:37.201Z,7.03
2022-12-25T03:39:29.642Z,6.00
2022-12-25T03:42:15.986Z,8.93
2022-12-25T03:45:06.828Z,5.47
2022-12-25T03:47:52.712Z,6.82
2022-12-25T03:50:43.805Z,5.35
2022-12-25T03:53:31.789Z,7.28
2022-12-25T03:56:15.346Z,5.35
2022-12-25T03:59:06.908Z,5.55
2022-12-25T04:01:49.610Z,5.53
2022-12-25T04:04:32.202Z,4.60
2022-12-25T04:07:17.445Z,9.35
2022-12-25T04:09:59.989Z,5.97
2022-12-25T04:12:42.608Z,4.75
2022-12-25T04:15:26.415Z,4.90
2022-12-25T04:18:09.112Z,5.93
2022-12-25T04:20:51.713Z,5.28
2022-12-25T04:23:37.016Z,4.97
2022-12-25T04:26:19.625Z,6.03
2022-12-25T04:29:02.254Z,6.03
2022-12-25T04:31:53.840Z,6.43
2022-12-25T04:34:36.461Z,5.43
2022-12-25T04:37:06.648Z,4.60
2022-12-25T04:39:39.565Z,6.05
2022-12-25T04:42:09.914Z,6.43
2022-12-25T04:44:40.092Z,6.63
2022-12-25T04:47:11.688Z,5.18
2022-12-25T04:49:42.497Z,5.95
2022-12-25T04:52:12.729Z,4.20
2022-12-25T04:54:45.564Z,6.13
2022-12-25T04:57:15.786Z,5.47
2022-12-25T04:59:46.062Z,6.75
2022-12-25T05:02:16.453Z,8.32
2022-12-25T05:04:46.933Z,5.00
2022-12-25T05:07:17.721Z,6.05
2022-12-25T05:09:50.602Z,7.35
2022-12-25T05:12:20.891Z,7.13
2022-12-25T05:14:51.078Z,5.85
2022-12-25T05:17:21.340Z,4.95
2022-12-25T05:19:51.593Z,4.97
2022-12-25T05:22:21.738Z,5.50
2022-12-25T05:24:54.537Z,6.50
2022-12-25T05:27:24.779Z,6.35
2022-12-25T05:29:54.959Z,6.82
2022-12-25T05:32:25.238Z,5.50
2022-12-25T05:34:55.513Z,5.07
2022-12-25T05:37:25.717Z,5.07
2022-12-25T05:39:59.284Z,6.65
2022-12-25T05:42:29.669Z,5.25
2022-12-25T05:44:59.921Z,6.07
2022-12-25T05:47:30.129Z,5.22
2022-12-25T05:50:00.417Z,5.22
2022-12-25T05:52:35.012Z,4.97
2022-12-25T05:55:08.601Z,6.30
2022-12-25T05:57:38.809Z,5.82
2022-12-25T06:00:10.659Z,5.18
2022-12-25T06:02:43.979Z,5.88
2022-12-25T06:05:14.411Z,7.10
2022-12-25T06:07:44.621Z,5.40
2022-12-25T06:10:17.536Z,5.30
2022-12-25T06:12:47.723Z,4.95
2022-12-25T06:15:18.352Z,4.93
2022-12-25T06:17:48.747Z,6.32
2022-12-25T06:20:19.098Z,6.20
2022-12-25T06:22:49.420Z,6.28
2022-12-25T06:25:22.505Z,6.38
2022-12-25T06:27:52.705Z,6.00
2022-12-25T06:30:23.097Z,6.05
2022-12-25T06:32:53.336Z,6.22
2022-12-25T06:35:23.517Z,6.25
2022-12-25T06:37:53.817Z,5.22
2022-12-25T06:40:26.716Z,5.60
2022-12-25T06:42:57.051Z,4.70
2022-12-25T06:45:27.412Z,6.35
2022-12-25T06:47:57.672Z,4.88
2022-12-25T06:50:28.007Z,5.47
2022-12-25T06:52:59.610Z,5.45
2022-12-25T06:55:33.404Z,5.07
2022-12-25T06:58:03.624Z,4.95
2022-12-25T07:00:33.814Z,5.03
2022-12-25T07:03:04.202Z,4.45
2022-12-25T07:05:34.617Z,4.50
2022-12-25T07:08:05.050Z,4.90
2022-12-25T07:10:37.918Z,8.25
2022-12-25T07:13:08.176Z,5.88
2022-12-25T07:15:38.489Z,5.57
2022-12-25T07:18:08.776Z,7.22
2022-12-25T07:20:39.883Z,6.40
2022-12-25T07:23:10.126Z,6.72
2022-12-25T07:25:43.042Z,7.82
2022-12-25T07:28:13.405Z,7.88
2022-12-25T07:30:43.615Z,7.05
2022-12-25T07:33:13.876Z,8.45
2022-12-25T07:35:44.113Z,8.52
2022-12-25T07:38:14.991Z,8.68
2022-12-25T07:40:48.891Z,9.07
2022-12-25T07:43:19.388Z,9.70
2022-12-25T07:45:49.705Z,11.30
2022-12-25T07:48:19.959Z,9.02
2022-12-25T07:50:50.192Z,9.18
2022-12-25T07:53:20.441Z,12.18
2022-12-25T07:55:59.636Z,11.45
2022-12-25T07:58:29.995Z,12.25
2022-12-25T08:01:06.654Z,12.15
2022-12-25T08:03:37.881Z,14.50
2022-12-25T08:06:10.465Z,11.52
2022-12-25T08:08:42.324Z,13.25
2022-12-25T08:11:15.842Z,16.00
2022-12-25T08:13:46.118Z,15.25
2022-12-25T08:16:16.480Z,15.85
2022-12-25T08:18:49.729Z,12.52
2022-12-25T08:21:20.237Z,14.35
2022-12-25T08:23:50.871Z,20.63
2022-12-25T08:26:25.381Z,15.35
2022-12-25T08:28:55.678Z,15.68
2022-12-25T08:31:28.735Z,16.38
2022-12-25T08:34:00.808Z,14.38
2022-12-25T08:36:31.349Z,16.13
2022-12-25T08:39:03.227Z,20.35
2022-12-25T08:41:36.592Z,16.73
2022-12-25T08:44:07.759Z,16.65
2022-12-25T08:46:39.948Z,14.35
2022-12-25T08:49:10.432Z,18.13
2022-12-25T08:51:40.808Z,17.70
2022-12-25T08:54:12.264Z,17.30
2022-12-25T08:56:45.227Z,17.02
2022-12-25T08:59:15.673Z,17.48
2022-12-25T09:01:46.054Z,18.95
2022-12-25T09:04:16.477Z,19.00
2022-12-25T09:06:46.749Z,16.50
2022-12-25T09:09:17.104Z,21.58
2022-12-25T09:11:51.737Z,20.02
2022-12-25T09:14:22.071Z,20.85
2022-12-25T09:16:53.322Z,24.25
2022-12-25T09:19:23.578Z,16.63
2022-12-25T09:21:54.017Z,15.95
2022-12-25T09:24:24.481Z,13.10
2022-12-25T09:26:57.595Z,13.93
2022-12-25T09:29:27.845Z,9.93
2022-12-25T09:31:58.094Z,8.18
2022-12-25T09:34:28.471Z,6.93
2022-12-25T09:36:58.791Z,6.75
2022-12-25T09:39:29.122Z,5.57
2022-12-25T09:42:04.633Z,5.53
2022-12-25T09:44:39.431Z,4.07
2022-12-25T09:47:14.909Z,4.85
2022-12-25T09:49:50.230Z,4.57
2022-12-25T09:52:23.305Z,5.70
2022-12-25T09:54:59.398Z,4.68
2022-12-25T09:57:32.440Z,5.00
2022-12-25T10:00:02.715Z,3.97
2022-12-25T10:02:49.827Z,4.90
2022-12-25T10:05:37.401Z,4.22
2022-12-25T10:10:53.730Z,5.30
2022-12-25T10:13:50.964Z,6.22
2022-12-25T10:16:27.924Z,6.50
2022-12-25T10:21:36.726Z,6.50
2022-12-25T10:24:13.640Z,6.80
2022-12-25T10:26:44.112Z,6.05
2022-12-25T10:29:19.573Z,8.85
2022-12-25T10:31:52.328Z,7.63
2022-12-25T10:34:22.568Z,8.43
2022-12-25T10:36:53.167Z,9.52
2022-12-25T10:39:25.807Z,7.47
2022-12-25T10:42:07.333Z,6.68
2022-12-25T10:44:40.537Z,6.22
2022-12-25T10:47:11.178Z,7.07
2022-12-25T10:49:42.727Z,7.68
2022-12-25T10:52:23.183Z,7.32
2022-12-25T10:54:53.519Z,7.82
2022-12-25T10:57:25.896Z,8.10
2022-12-25T11:00:01.770Z,7.82
2022-12-25T11:05:06.509Z,6.75
2022-12-25T11:07:46.675Z,6.47
2022-12-25T11:10:23.976Z,8.57
2022-12-25T11:12:55.521Z,8.05
2022-12-25T11:15:43.394Z,8.07
2022-12-25T11:18:22.945Z,11.18
2022-12-25T11:20:54.448Z,10.45
2022-12-25T11:23:26.647Z,18.13
2022-12-25T11:26:01.612Z,16.75
2022-12-25T11:28:36.715Z,22.00
2022-12-25T11:31:13.864Z,26.25
2022-12-25T11:33:50.261Z,32.58
2022-12-25T11:36:24.381Z,21.83
2022-12-25T11:38:54.894Z,25.52
2022-12-25T11:41:32.687Z,17.40
2022-12-25T11:44:06.760Z,23.95
2022-12-25T11:46:44.389Z,24.08
2022-12-25T11:49:19.253Z,19.15
2022-12-25T11:51:53.256Z,20.25
2022-12-25T11:54:30.695Z,23.00
2022-12-25T11:57:05.364Z,23.50
2022-12-25T11:59:41.644Z,28.63
2022-12-25T12:02:26.982Z,24.27
2022-12-25T12:05:06.752Z,24.83
2022-12-25T12:07:38.813Z,25.73
2022-12-25T12:10:17.608Z,28.52
2022-12-25T12:12:57.183Z,28.17
2022-12-25T12:15:31.978Z,29.48
2022-12-25T12:18:23.639Z,29.15
2022-12-25T12:21:05.721Z,25.35
2022-12-25T12:23:39.725Z,21.55
2022-12-25T12:26:09.997Z,28.02
2022-12-25T12:28:48.479Z,23.73
2022-12-25T12:31:19.416Z,23.90
2022-12-25T12:33:58.960Z,28.42
2022-12-25T12:36:36.247Z,25.35
2022-12-25T12:39:08.226Z,30.92
2022-12-25T12:41:48.635Z,22.33
2022-12-25T12:44:20.142Z,23.50
2022-12-25T12:46:56.262Z,22.63
2022-12-25T12:49:32.384Z,28.67
2022-12-25T12:52:07.945Z,28.00
2022-12-25T12:54:58.785Z,24.70
2022-12-25T12:57:32.889Z,23.60
2022-12-25T13:00:10.200Z,25.83
2022-12-25T13:03:16.994Z,20.58
2022-12-25T13:05:53.522Z,28.13
2022-12-25T13:08:38.013Z,26.48
2022-12-25T13:11:17.102Z,26.75
2022-12-25T13:13:49.307Z,26.42
2022-12-25T13:16:27.679Z,25.48
2022-12-25T13:18:59.712Z,27.05
2022-12-25T13:21:33.202Z,26.77
2022-12-25T13:24:08.914Z,25.15
2022-12-25T13:26:39.756Z,16.25
2022-12-25T13:29:11.790Z,18.42
2022-12-25T13:31:44.259Z,14.77
2022-12-25T13:34:26.130Z,19.70
2022-12-25T13:36:59.861Z,15.25
2022-12-25T13:39:31.292Z,10.10
2022-12-25T13:42:10.115Z,10.82
2022-12-25T13:44:47.148Z,22.40
2022-12-25T13:49:50.612Z,9.85
2022-12-25T13:52:25.729Z,10.52
2022-12-25T13:55:01.889Z,8.30
2022-12-25T13:57:36.060Z,8.20
2022-12-25T14:00:10.532Z,9.10
2022-12-25T14:02:42.104Z,7.13
2022-12-25T14:05:33.437Z,9.98
2022-12-25T14:08:19.934Z,6.20
2022-12-25T14:10:54.026Z,9.73
2022-12-25T14:13:27.762Z,8.90
2022-12-25T14:15:58.971Z,9.02
2022-12-25T14:18:29.751Z,7.90
2022-12-25T14:21:04.281Z,7.30
2022-12-25T14:23:44.316Z,7.18
2022-12-25T14:26:19.534Z,6.72
2022-12-25T14:28:51.850Z,8.57
2022-12-25T14:31:22.679Z,6.18
2022-12-25T14:33:54.375Z,8.70
2022-12-25T14:36:24.845Z,7.95
2022-12-25T14:39:03.128Z,8.30
2022-12-25T14:41:38.298Z,9.95
2022-12-25T14:44:30.932Z,7.47
2022-12-25T14:47:08.301Z,4.88
2022-12-25T14:49:38.556Z,7.25
2022-12-25T14:52:18.329Z,4.97
2022-12-25T14:54:54.276Z,8.13
2022-12-25T14:57:29.938Z,4.65
2022-12-25T15:00:05.759Z,5.57
2022-12-25T15:02:46.002Z,5.00
2022-12-25T15:05:36.267Z,5.93
2022-12-25T15:08:27.609Z,13.60
2022-12-25T15:11:03.007Z,12.13
2022-12-25T15:13:34.379Z,6.78
2022-12-25T15:16:09.328Z,2.97
2022-12-25T15:18:42.345Z,3.25
2022-12-25T15:21:18.736Z,6.88
2022-12-25T15:23:49.171Z,3.22
2022-12-25T15:26:25.141Z,2.17
2022-12-25T15:28:55.669Z,2.28
2022-12-25T15:31:28.044Z,3.42
2022-12-25T15:34:00.561Z,4.78
2022-12-25T15:36:31.468Z,1.52
2022-12-25T15:39:01.663Z,2.50
2022-12-25T15:41:50.222Z,3.25
2022-12-25T15:44:20.861Z,1.42
2022-12-25T15:46:51.702Z,1.65
2022-12-25T15:49:22.195Z,4.30
2022-12-25T15:51:52.369Z,6.32
2022-12-25T15:54:22.593Z,2.70
2022-12-25T15:56:58.754Z,3.08
2022-12-25T15:59:29.166Z,4.22
2022-12-25T16:02:02.256Z,3.13
2022-12-25T16:04:33.634Z,1.42
2022-12-25T16:07:04.244Z,2.03
2022-12-25T16:09:34.514Z,2.47
2022-12-25T16:12:07.640Z,1.98
2022-12-25T16:14:38.371Z,2.13
2022-12-25T16:17:08.885Z,1.80
2022-12-25T16:19:39.060Z,1.90
2022-12-25T16:22:14.577Z,2.97
2022-12-25T16:24:44.910Z,4.18
2022-12-25T16:27:18.089Z,2.25
2022-12-25T16:29:48.265Z,3.63
2022-12-25T16:32:18.704Z,1.55
2022-12-25T16:34:51.069Z,2.40
2022-12-25T16:37:21.570Z,1.33
2022-12-25T16:39:51.743Z,0.77
2022-12-25T16:42:24.611Z,1.45
2022-12-25T16:44:54.884Z,1.70
2022-12-25T16:47:25.102Z,3.10
2022-12-25T16:49:55.395Z,1.67
2022-12-25T16:52:25.632Z,1.75
2022-12-25T16:54:55.919Z,4.25
2022-12-25T16:57:28.923Z,4.65
2022-12-25T16:59:59.198Z,5.88
2022-12-25T17:02:29.734Z,2.83
2022-12-25T17:05:00.523Z,1.63
2022-12-25T17:07:30.772Z,2.00
2022-12-25T17:10:00.948Z,4.20
2022-12-25T17:12:33.853Z,3.00
2022-12-25T17:15:04.487Z,1.40
2022-12-25T17:17:34.709Z,3.53
2022-12-25T17:20:04.942Z,2.05
2022-12-25T17:22:35.354Z,1.95
2022-12-25T17:25:05.660Z,2.25
2022-12-25T17:27:38.881Z,1.15
2022-12-25T17:30:11.077Z,4.55
2022-12-25T17:32:41.386Z,1.92
2022-12-25T17:35:11.968Z,3.38
2022-12-25T17:37:42.233Z,1.77
2022-12-25T17:40:13.457Z,14.02
2022-12-25T17:42:46.278Z,3.67
2022-12-25T17:45:17.631Z,5.55
2022-12-25T17:47:47.829Z,2.40
2022-12-25T17:50:18.210Z,2.58
2022-12-25T17:52:48.404Z,1.92
2022-12-25T17:55:18.912Z,3.58
2022-12-25T17:57:51.750Z,0.95
2022-12-25T18:00:24.126Z,1.77
2022-12-25T18:02:54.591Z,1.70
2022-12-25T18:05:24.971Z,2.67
2022-12-25T18:07:55.216Z,0.80
2022-12-25T18:10:25.390Z,1.50
2022-12-25T18:12:58.325Z,5.05
2022-12-25T18:15:28.514Z,1.33
2022-12-25T18:17:58.803Z,3.00
2022-12-25T18:20:31.810Z,3.72
2022-12-25T18:23:05.134Z,1.90
2022-12-25T18:25:35.901Z,2.05
2022-12-25T18:28:08.727Z,3.20
2022-12-25T18:30:41.876Z,2.75
2022-12-25T18:33:13.640Z,3.47
2022-12-25T18:35:46.756Z,4.50
2022-12-25T18:38:17.379Z,2.88
2022-12-25T18:40:50.585Z,3.50
2022-12-25T18:43:53.122Z,4.10
2022-12-25T18:46:14.283Z,3.05
2022-12-25T18:48:44.598Z,3.05
2022-12-25T18:51:16.321Z,4.60
2022-12-25T18:53:46.589Z,5.97
2022-12-25T18:56:18.687Z,5.50
2022-12-25T18:58:51.847Z,5.95
2022-12-25T19:01:24.438Z,7.28
2022-12-25T19:04:02.044Z,7.20
2022-12-25T19:06:35.078Z,3.78
2022-12-25T19:09:09.150Z,3.92
2022-12-25T19:11:46.095Z,7.55
2022-12-25T19:14:19.249Z,5.40
2022-12-25T19:16:49.505Z,6.75
2022-12-25T19:19:19.832Z,6.85
2022-12-25T19:21:53.528Z,6.55
2022-12-25T19:24:24.272Z,4.85
2022-12-25T19:26:54.854Z,6.57
2022-12-25T19:29:27.809Z,3.72
2022-12-25T19:31:59.378Z,4.57
2022-12-25T19:34:29.663Z,5.30
2022-12-25T19:36:59.920Z,4.35
2022-12-25T19:39:30.259Z,5.45
2022-12-25T19:42:00.727Z,3.10
2022-12-25T19:44:33.500Z,5.43
2022-12-25T19:47:03.759Z,8.70
2022-12-25T19:49:34.056Z,8.40
2022-12-25T19:52:04.358Z,4.43
2022-12-25T19:54:34.673Z,4.90
2022-12-25T19:57:04.911Z,5.70
2022-12-25T19:59:37.774Z,6.72
2022-12-25T20:02:08.067Z,8.23
2022-12-25T20:04:38.498Z,4.50
2022-12-25T20:07:08.673Z,5.05
2022-12-25T20:09:38.959Z,4.60
2022-12-25T20:12:11.349Z,4.28
2022-12-25T20:14:44.203Z,5.53
2022-12-25T20:17:16.241Z,4.55
2022-12-25T20:19:46.864Z,5.18
2022-12-25T20:22:17.079Z,4.78
2022-12-25T20:24:47.839Z,6.70
2022-12-25T20:27:18.232Z,4.15
2022-12-25T20:29:51.106Z,5.03
2022-12-25T20:32:21.273Z,4.45
2022-12-25T20:34:51.740Z,6.13
2022-12-25T20:37:21.935Z,6.65
2022-12-25T20:39:52.124Z,3.45
2022-12-25T20:42:22.307Z,2.05
2022-12-25T20:44:55.383Z,3.72
2022-12-25T20:47:25.545Z,2.05
2022-12-25T20:49:55.776Z,2.00
2022-12-25T20:52:25.977Z,1.88
2022-12-25T20:54:57.436Z,5.05
2022-12-25T20:57:28.827Z,2.15
2022-12-25T21:00:01.718Z,2.35
2022-12-25T21:02:34.747Z,3.72
2022-12-25T21:05:07.095Z,2.15
2022-12-25T21:07:37.681Z,4.75
2022-12-25T21:10:09.314Z,3.42
2022-12-25T21:12:39.488Z,2.00
2022-12-25T21:15:15.679Z,2.78
2022-12-25T21:17:46.228Z,3.25
2022-12-25T21:20:16.492Z,1.60
2022-12-25T21:22:46.777Z,1.75
2022-12-25T21:25:17.096Z,2.58
2022-12-25T21:27:47.280Z,4.43
2022-12-25T21:30:20.217Z,4.13
2022-12-25T21:33:02.834Z,3.70
2022-12-25T21:35:33.469Z,1.80
2022-12-25T21:38:03.734Z,2.45
2022-12-25T21:40:36.868Z,2.03
2022-12-25T21:43:07.927Z,3.05
2022-12-25T21:45:40.809Z,4.50
2022-12-25T21:48:11.281Z,3.30
2022-12-25T21:50:54.001Z,5.30
2022-12-25T21:53:24.455Z,3.42
2022-12-25T21:56:02.498Z,2.63
2022-12-25T21:58:32.903Z,3.72
2022-12-25T22:01:07.563Z,3.05
2022-12-25T22:03:37.998Z,1.38
2022-12-25T22:06:21.908Z,2.65
2022-12-25T22:08:52.272Z,3.03
2022-12-25T22:11:43.640Z,2.33
2022-12-25T22:14:50.457Z,3.83
2022-12-25T22:17:39.197Z,5.72
2022-12-25T22:20:12.506Z,4.63
2022-12-25T22:22:42.843Z,2.47
2022-12-25T22:25:14.060Z,3.33
2022-12-25T22:27:45.782Z,4.68
2022-12-25T22:30:18.284Z,5.30
2022-12-25T22:32:52.063Z,2.90
2022-12-25T22:35:23.267Z,4.97
2022-12-25T22:37:54.202Z,4.45
2022-12-25T22:40:25.120Z,4.43
2022-12-25T22:42:57.159Z,3.25
2022-12-25T22:45:27.485Z,6.72
2022-12-25T22:48:00.383Z,6.60
2022-12-25T22:50:30.733Z,5.88
2022-12-25T22:53:01.037Z,3.75
2022-12-25T22:55:31.325Z,3.33
2022-12-25T22:58:01.496Z,3.28
2022-12-25T23:00:31.755Z,1.90
2022-12-25T23:03:04.860Z,5.40
2022-12-25T23:05:35.171Z,5.10
2022-12-25T23:08:05.461Z,4.97
2022-12-25T23:10:35.750Z,8.63
2022-12-25T23:13:18.228Z,3.45
2022-12-25T23:15:49.214Z,6.40
2022-12-25T23:18:34.582Z,3.58
2022-12-25T23:21:17.631Z,4.75
2022-12-25T23:24:06.204Z,6.30
2022-12-25T23:26:36.501Z,4.88
2022-12-25T23:29:19.211Z,5.15
2022-12-25T23:31:53.806Z,5.22
2022-12-25T23:34:27.033Z,5.50
2022-12-25T23:36:57.354Z,7.32
2022-12-25T23:39:27.633Z,6.30
2022-12-25T23:41:58.125Z,3.78
2022-12-25T23:44:28.591Z,5.40
2022-12-25T23:46:59.305Z,7.53
2022-12-25T23:49:32.457Z,4.30
2022-12-25T23:52:02.684Z,7.05
2022-12-25T23:54:34.244Z,5.13
2022-12-25T23:57:04.724Z,8.68
2022-12-25T23:59:35.067Z,3.85
